createdAt,value
2022-10-05T00:00:00.711Z,8.45
2022-10-05T00:03:27.676Z,7.68
2022-10-05T00:06:51.722Z,7.22
2022-10-05T00:10:16.634Z,8.10
2022-10-05T00:13:44.697Z,6.07
2022-10-05T00:17:08.680Z,8.32
2022-10-05T00:20:39.693Z,7.85
2022-10-05T00:24:03.660Z,6.65
2022-10-05T00:27:36.757Z,5.53
2022-10-05T00:31:00.678Z,8.30
2022-10-05T00:34:24.706Z,6.07
2022-10-05T00:37:41.718Z,7.57
2022-10-05T00:41:27.701Z,6.75
2022-10-05T00:45:05.716Z,7.53
2022-10-05T00:49:01.736Z,6.30
2022-10-05T00:52:43.700Z,8.20
2022-10-05T00:56:16.681Z,7.70
2022-10-05T00:59:59.749Z,7.68
2022-10-05T01:03:35.688Z,5.88
2022-10-05T01:07:12.768Z,6.68
2022-10-05T01:10:39.728Z,9.15
2022-10-05T01:14:12.726Z,6.22
2022-10-05T01:17:47.742Z,6.75
2022-10-05T01:21:23.741Z,7.28
2022-10-05T01:24:49.726Z,7.93
2022-10-05T01:28:35.805Z,10.68
2022-10-05T01:32:20.732Z,9.38
2022-10-05T01:35:56.666Z,8.45
2022-10-05T01:39:45.756Z,7.72
2022-10-05T01:43:24.751Z,7.95
2022-10-05T01:46:49.040Z,10.13
2022-10-05T01:50:20.357Z,7.82
2022-10-05T01:53:49.768Z,7.55
2022-10-05T01:57:31.701Z,10.77
2022-10-05T02:01:04.813Z,8.60
2022-10-05T02:05:00.458Z,9.95
2022-10-05T02:08:22.796Z,9.40
2022-10-05T02:11:47.741Z,8.43
2022-10-05T02:15:15.750Z,13.07
2022-10-05T02:18:46.781Z,9.38
2022-10-05T02:22:17.734Z,10.80
2022-10-05T02:25:57.767Z,15.02
2022-10-05T02:29:28.774Z,9.27
2022-10-05T02:33:19.836Z,9.38
2022-10-05T02:36:50.751Z,8.82
2022-10-05T02:40:33.819Z,8.45
2022-10-05T02:47:37.755Z,10.98
2022-10-05T02:51:24.780Z,13.38
2022-10-05T02:55:39.774Z,12.77
2022-10-05T02:59:31.790Z,13.35
2022-10-05T03:03:15.758Z,10.32
2022-10-05T03:10:24.822Z,8.65
2022-10-05T03:14:08.727Z,10.63
2022-10-05T03:17:37.778Z,10.95
2022-10-05T03:21:02.799Z,12.80
2022-10-05T03:24:55.798Z,11.65
2022-10-05T03:28:47.776Z,9.75
2022-10-05T03:32:47.736Z,9.40
2022-10-05T03:36:38.764Z,13.43
2022-10-05T03:40:24.799Z,16.30
2022-10-05T03:44:31.752Z,9.85
2022-10-05T03:48:28.791Z,15.07
2022-10-05T03:52:00.757Z,13.65
2022-10-05T03:55:47.739Z,14.30
2022-10-05T03:59:32.753Z,19.42
2022-10-05T04:03:04.886Z,17.15
2022-10-05T04:06:47.959Z,15.30
2022-10-05T04:13:54.778Z,16.92
2022-10-05T04:17:30.757Z,15.73
2022-10-05T04:21:01.779Z,17.45
2022-10-05T04:24:45.751Z,22.45
2022-10-05T04:32:06.734Z,20.38
2022-10-05T04:35:48.754Z,20.35
2022-10-05T04:43:17.820Z,18.23
2022-10-05T04:46:59.794Z,15.43
2022-10-05T04:54:26.333Z,24.05
2022-10-05T04:58:14.818Z,17.88
2022-10-05T05:01:57.822Z,17.30
2022-10-05T05:06:16.431Z,14.02
2022-10-05T05:09:56.818Z,18.27
2022-10-05T05:13:50.749Z,20.95
2022-10-05T05:17:38.918Z,17.42
2022-10-05T05:21:26.757Z,22.70
2022-10-05T05:24:56.798Z,21.20
2022-10-05T05:28:37.825Z,18.55
2022-10-05T05:32:15.782Z,17.17
2022-10-05T05:35:55.773Z,11.60
2022-10-05T05:39:23.776Z,15.57
2022-10-05T05:43:01.803Z,19.20
2022-10-05T05:47:01.652Z,15.48
2022-10-05T05:50:33.809Z,12.52
2022-10-05T05:54:02.797Z,15.50
2022-10-05T05:57:58.798Z,16.30
2022-10-05T06:01:45.955Z,14.27
2022-10-05T06:05:20.808Z,18.90
2022-10-05T06:08:55.833Z,20.65
2022-10-05T06:12:27.806Z,17.98
2022-10-05T06:15:57.831Z,15.40
2022-10-05T06:19:32.847Z,15.07
2022-10-05T06:22:58.758Z,13.93
2022-10-05T06:26:31.806Z,18.35
2022-10-05T06:30:15.837Z,12.73
2022-10-05T06:33:44.803Z,18.30
2022-10-05T06:37:18.878Z,11.18
2022-10-05T06:41:14.770Z,13.70
2022-10-05T06:45:03.864Z,13.13
2022-10-05T06:48:56.815Z,14.57
2022-10-05T06:53:05.849Z,11.80
2022-10-05T06:56:38.863Z,18.92
2022-10-05T07:00:04.412Z,18.58
2022-10-05T07:03:44.814Z,11.45
2022-10-05T07:07:38.806Z,19.02
2022-10-05T07:11:18.835Z,19.45
2022-10-05T07:15:07.845Z,12.10
2022-10-05T07:19:07.854Z,16.58
2022-10-05T07:22:47.796Z,17.17
2022-10-05T07:26:22.821Z,11.35
2022-10-05T07:30:02.932Z,14.07
2022-10-05T07:33:38.818Z,15.77
2022-10-05T07:37:45.866Z,19.20
2022-10-05T07:41:15.836Z,17.98
2022-10-05T07:44:48.832Z,17.20
2022-10-05T07:48:18.885Z,14.05
2022-10-05T07:51:55.798Z,16.88
2022-10-05T07:55:37.834Z,16.33
2022-10-05T07:59:15.878Z,15.07
2022-10-05T08:02:46.033Z,19.08
2022-10-05T08:06:03.871Z,17.27
2022-10-05T08:09:44.809Z,13.52
2022-10-05T08:13:15.898Z,14.00
2022-10-05T08:16:42.855Z,15.80
2022-10-05T08:20:39.850Z,12.25
2022-10-05T08:24:14.884Z,13.52
2022-10-05T08:28:00.894Z,13.48
2022-10-05T08:31:34.920Z,15.35
2022-10-05T08:35:45.865Z,8.73
2022-10-05T08:39:11.869Z,8.10
2022-10-05T08:42:57.862Z,10.23
2022-10-05T08:46:28.984Z,14.50
2022-10-05T08:50:04.826Z,10.95
2022-10-05T08:53:46.850Z,15.40
2022-10-05T09:00:29.723Z,11.25
2022-10-05T09:04:44.877Z,13.05
2022-10-05T09:08:43.892Z,13.15
2022-10-05T09:12:31.828Z,12.20
2022-10-05T09:16:14.979Z,10.70
2022-10-05T09:20:01.877Z,14.63
2022-10-05T09:23:55.850Z,14.63
2022-10-05T09:27:25.861Z,16.23
2022-10-05T09:31:40.888Z,11.25
2022-10-05T09:35:15.828Z,7.40
2022-10-05T09:39:06.861Z,12.23
2022-10-05T09:42:54.900Z,9.45
2022-10-05T09:46:30.924Z,14.52
2022-10-05T09:50:36.867Z,19.60
2022-10-05T09:54:31.859Z,11.63
2022-10-05T09:57:55.858Z,15.38
2022-10-05T10:01:42.905Z,11.98
2022-10-05T10:05:13.924Z,12.93
2022-10-05T10:09:15.905Z,11.73
2022-10-05T10:13:09.922Z,11.65
2022-10-05T10:16:57.885Z,10.60
2022-10-05T10:20:27.865Z,10.75
2022-10-05T10:24:09.886Z,11.75
2022-10-05T10:28:04.874Z,9.57
2022-10-05T10:31:45.122Z,11.73
2022-10-05T10:39:31.878Z,16.88
2022-10-05T10:43:12.878Z,12.38
2022-10-05T10:47:00.906Z,13.48
2022-10-05T10:50:55.882Z,12.75
2022-10-05T10:54:28.905Z,13.25
2022-10-05T11:01:57.947Z,13.45
2022-10-05T11:05:50.871Z,14.55
2022-10-05T11:09:38.872Z,12.98
2022-10-05T11:13:26.888Z,11.07
2022-10-05T11:16:53.929Z,11.35
2022-10-05T11:20:26.888Z,14.80
2022-10-05T11:24:32.898Z,10.95
2022-10-05T11:28:04.017Z,13.82
2022-10-05T11:31:52.083Z,14.57
2022-10-05T11:35:44.899Z,13.68
2022-10-05T11:39:44.919Z,14.80
2022-10-05T11:43:27.952Z,11.95
2022-10-05T11:50:38.952Z,13.63
2022-10-05T11:54:12.895Z,9.60
2022-10-05T11:57:45.943Z,8.32
2022-10-05T12:01:20.861Z,10.30
2022-10-05T12:04:49.944Z,8.35
2022-10-05T12:08:31.927Z,8.98
2022-10-05T12:12:25.942Z,7.53
2022-10-05T12:16:12.938Z,9.30
2022-10-05T12:19:50.920Z,10.55
2022-10-05T12:23:28.945Z,11.00
2022-10-05T12:27:00.914Z,8.27
2022-10-05T12:30:42.911Z,10.77
2022-10-05T12:34:25.957Z,11.32
2022-10-05T12:37:56.894Z,10.15
2022-10-05T12:41:27.858Z,10.90
2022-10-05T12:45:17.896Z,9.18
2022-10-05T12:48:56.962Z,12.75
2022-10-05T12:52:23.876Z,10.93
2022-10-05T12:56:17.976Z,10.57
2022-10-05T12:59:48.881Z,9.63
2022-10-05T13:03:31.961Z,8.80
2022-10-05T13:06:56.496Z,11.02
2022-10-05T13:10:41.925Z,11.48
2022-10-05T13:14:30.938Z,11.85
2022-10-05T13:18:00.962Z,9.77
2022-10-05T13:21:27.911Z,11.75
2022-10-05T13:25:27.921Z,8.20
2022-10-05T13:29:03.156Z,13.40
2022-10-05T13:32:38.924Z,15.07
2022-10-05T13:36:32.933Z,13.55
2022-10-05T13:40:27.987Z,9.45
2022-10-05T13:43:59.935Z,18.20
2022-10-05T13:47:53.984Z,14.60
2022-10-05T13:51:21.928Z,14.23
2022-10-05T13:54:56.948Z,11.05
2022-10-05T13:58:47.966Z,7.30
2022-10-05T14:02:19.981Z,14.55
2022-10-05T14:05:45.949Z,12.27
2022-10-05T14:09:04.535Z,13.48
2022-10-05T14:12:28.997Z,9.02
2022-10-05T14:15:53.904Z,11.02
2022-10-05T14:19:21.955Z,7.43
2022-10-05T14:22:56.990Z,8.30
2022-10-05T14:26:34.961Z,7.07
2022-10-05T14:29:59.018Z,7.35
2022-10-05T14:33:29.923Z,6.53
2022-10-05T14:36:53.969Z,8.27
2022-10-05T14:40:46.910Z,11.60
2022-10-05T14:44:38.021Z,9.85
2022-10-05T14:48:09.958Z,11.35
2022-10-05T14:51:46.957Z,10.38
2022-10-05T14:55:20.967Z,11.52
2022-10-05T14:59:35.966Z,11.63
2022-10-05T15:03:26.954Z,14.20
2022-10-05T15:07:19.077Z,10.95
2022-10-05T15:10:45.976Z,11.82
2022-10-05T15:14:11.002Z,13.68
2022-10-05T15:17:45.937Z,12.25
2022-10-05T15:21:11.006Z,13.73
2022-10-05T15:24:43.613Z,13.30
2022-10-05T15:28:18.025Z,14.70
2022-10-05T15:32:06.934Z,11.38
2022-10-05T15:35:46.981Z,11.55
2022-10-05T15:39:37.960Z,15.05
2022-10-05T15:43:01.934Z,15.13
2022-10-05T15:46:47.956Z,13.13
2022-10-05T15:50:17.950Z,17.33
2022-10-05T15:53:47.961Z,13.80
2022-10-05T15:57:17.021Z,12.57
2022-10-05T16:00:40.985Z,12.32
2022-10-05T16:04:29.990Z,14.48
2022-10-05T16:08:14.523Z,18.15
2022-10-05T16:11:41.027Z,13.23
2022-10-05T16:15:29.925Z,13.10
2022-10-05T16:19:14.966Z,12.20
2022-10-05T16:22:55.953Z,13.55
2022-10-05T16:26:32.019Z,12.27
2022-10-05T16:30:23.993Z,14.52
2022-10-05T16:34:06.007Z,8.30
2022-10-05T16:37:42.972Z,10.70
2022-10-05T16:41:22.942Z,9.55
2022-10-05T16:45:14.974Z,16.00
2022-10-05T16:48:53.009Z,8.73
2022-10-05T16:52:19.019Z,12.35
2022-10-05T16:55:53.033Z,9.70
2022-10-05T16:59:40.989Z,12.02
2022-10-05T17:03:12.001Z,9.68
2022-10-05T17:07:13.016Z,12.10
2022-10-05T17:11:04.011Z,10.05
2022-10-05T17:14:57.006Z,12.95
2022-10-05T17:18:45.002Z,10.65
2022-10-05T17:22:17.994Z,7.10
2022-10-05T17:25:59.030Z,5.18
2022-10-05T17:29:41.008Z,6.15
2022-10-05T17:33:16.012Z,4.70
2022-10-05T17:36:54.963Z,10.20
2022-10-05T17:40:40.009Z,7.40
2022-10-05T17:44:31.958Z,8.32
2022-10-05T17:48:14.050Z,12.02
2022-10-05T17:52:02.961Z,8.50
2022-10-05T17:55:50.001Z,8.95
2022-10-05T17:59:16.955Z,12.07
2022-10-05T18:02:51.094Z,8.55
2022-10-05T18:06:40.032Z,11.20
2022-10-05T18:10:16.043Z,7.53
2022-10-05T18:14:33.000Z,8.57
2022-10-05T18:18:30.959Z,11.75
2022-10-05T18:21:55.050Z,10.57
2022-10-05T18:25:27.017Z,6.93
2022-10-05T18:29:07.056Z,8.70
2022-10-05T18:32:39.048Z,12.27
2022-10-05T18:36:10.964Z,12.33
2022-10-05T18:39:56.021Z,15.93
2022-10-05T18:43:39.009Z,15.73
2022-10-05T18:47:06.061Z,12.60
2022-10-05T18:51:14.050Z,11.80
2022-10-05T18:55:04.991Z,12.70
2022-10-05T18:58:41.088Z,12.00
2022-10-05T19:02:16.109Z,9.65
2022-10-05T19:06:00.032Z,10.98
2022-10-05T19:09:49.056Z,10.15
2022-10-05T19:13:50.061Z,16.20
2022-10-05T19:17:45.021Z,17.90
2022-10-05T19:21:10.029Z,12.27
2022-10-05T19:25:15.052Z,13.75
2022-10-05T19:29:04.023Z,11.10
2022-10-05T19:32:48.035Z,9.63
2022-10-05T19:40:11.076Z,12.55
2022-10-05T19:43:44.035Z,10.50
2022-10-05T19:47:49.028Z,17.38
2022-10-05T19:51:18.083Z,10.90
2022-10-05T19:54:42.993Z,15.23
2022-10-05T19:58:09.090Z,12.48
2022-10-05T20:01:49.110Z,14.20
2022-10-05T20:05:22.037Z,11.65
2022-10-05T20:08:57.078Z,7.28
2022-10-05T20:12:20.065Z,12.27
2022-10-05T20:16:12.097Z,8.82
2022-10-05T20:20:02.054Z,7.15
2022-10-05T20:23:38.090Z,7.47
2022-10-05T20:27:15.784Z,6.13
2022-10-05T20:30:44.079Z,6.20
2022-10-05T20:34:08.090Z,8.68
2022-10-05T20:37:34.028Z,10.48
2022-10-05T20:40:59.085Z,12.27
2022-10-05T20:44:23.033Z,8.65
2022-10-05T20:47:48.114Z,10.00
2022-10-05T20:51:11.131Z,9.40
2022-10-05T20:54:35.073Z,8.30
2022-10-05T20:57:58.048Z,8.35
2022-10-05T21:01:27.089Z,8.23
2022-10-05T21:04:55.216Z,8.43
2022-10-05T21:08:19.069Z,5.72
2022-10-05T21:11:43.060Z,5.35
2022-10-05T21:15:08.074Z,7.13
2022-10-05T21:18:33.060Z,9.90
2022-10-05T21:21:59.091Z,8.70
2022-10-05T21:25:23.106Z,6.25
2022-10-05T21:28:47.114Z,7.47
2022-10-05T21:32:11.095Z,7.45
2022-10-05T21:35:35.056Z,7.80
2022-10-05T21:38:59.107Z,9.85
2022-10-05T21:42:23.601Z,9.02
2022-10-05T21:45:48.155Z,9.75
2022-10-05T21:49:14.159Z,8.20
2022-10-05T21:52:41.099Z,7.82
2022-10-05T21:56:05.048Z,8.30
2022-10-05T21:59:31.107Z,8.60
2022-10-05T22:02:55.059Z,6.35
2022-10-05T22:06:19.062Z,8.65
2022-10-05T22:09:43.090Z,8.18
2022-10-05T22:13:07.112Z,8.07
2022-10-05T22:16:32.162Z,5.95
2022-10-05T22:19:56.108Z,6.50
2022-10-05T22:23:21.120Z,6.85
2022-10-05T22:26:45.138Z,5.35
2022-10-05T22:30:10.095Z,7.03
2022-10-05T22:33:35.093Z,3.47
2022-10-05T22:37:00.101Z,7.10
2022-10-05T22:40:19.103Z,4.55
2022-10-05T22:43:43.096Z,5.68
2022-10-05T22:47:07.088Z,5.10
2022-10-05T22:50:32.062Z,3.80
2022-10-05T22:53:56.104Z,2.00
2022-10-05T22:57:20.097Z,3.83
2022-10-05T23:00:57.975Z,2.80
2022-10-05T23:04:22.125Z,3.58
2022-10-05T23:07:51.056Z,4.78
2022-10-05T23:11:19.087Z,3.25
2022-10-05T23:14:43.069Z,3.22
2022-10-05T23:18:09.117Z,2.95
2022-10-05T23:21:34.110Z,3.75
2022-10-05T23:24:51.132Z,3.25
2022-10-05T23:28:17.159Z,2.22
2022-10-05T23:31:45.126Z,5.57
2022-10-05T23:35:09.071Z,5.32
2022-10-05T23:38:33.153Z,3.55
2022-10-05T23:41:57.147Z,8.05
2022-10-05T23:45:22.092Z,3.88
2022-10-05T23:48:46.110Z,4.40
2022-10-05T23:52:11.124Z,2.03
2022-10-05T23:55:35.154Z,2.55
2022-10-05T23:58:59.134Z,6.47
